createdAt,value
2022-12-04T03:59:09.150Z,25.30
2022-12-04T04:00:09.222Z,25.20
2022-12-04T04:01:09.449Z,26.30
2022-12-04T04:02:09.516Z,25.80
2022-12-04T04:03:09.669Z,25.10
2022-12-04T04:04:09.706Z,25.50
2022-12-04T04:05:09.877Z,25.40
2022-12-04T04:06:09.966Z,23.80
2022-12-04T04:07:10.134Z,24.20
2022-12-04T04:08:10.245Z,24.70
2022-12-04T04:09:10.410Z,23.80
2022-12-04T04:10:10.491Z,24.70
2022-12-04T04:11:10.651Z,22.90
2022-12-04T04:12:10.809Z,25.40
2022-12-04T04:13:10.961Z,25.00
2022-12-04T04:14:11.124Z,23.60
2022-12-04T04:15:11.282Z,25.60
2022-12-04T04:16:11.496Z,25.30
2022-12-04T04:17:11.584Z,25.00
2022-12-04T04:18:11.740Z,23.80
2022-12-04T04:19:11.968Z,24.60
2022-12-04T04:20:11.989Z,23.70
2022-12-04T04:21:12.175Z,24.70
2022-12-04T04:22:12.269Z,24.00
2022-12-04T04:23:12.360Z,21.90
2022-12-04T04:24:12.512Z,24.60
2022-12-04T04:25:12.658Z,22.80
2022-12-04T04:26:12.834Z,24.70
2022-12-04T04:27:12.917Z,24.10
2022-12-04T04:28:13.049Z,23.10
2022-12-04T04:29:13.199Z,23.60
2022-12-04T04:30:14.281Z,24.70
2022-12-04T04:31:13.502Z,22.40
2022-12-04T04:32:13.607Z,23.10
2022-12-04T04:33:13.697Z,23.50
2022-12-04T04:34:13.822Z,24.70
2022-12-04T04:35:13.996Z,23.20
2022-12-04T04:36:14.167Z,23.60
2022-12-04T04:37:14.246Z,23.60
2022-12-04T04:38:14.398Z,24.40
2022-12-04T04:39:14.530Z,22.00
2022-12-04T04:40:14.610Z,24.40
2022-12-04T04:41:14.747Z,22.30
2022-12-04T04:42:14.892Z,22.40
2022-12-04T04:43:15.037Z,22.10
2022-12-04T04:44:15.219Z,23.90
2022-12-04T04:45:15.286Z,21.20
2022-12-04T04:46:15.509Z,23.10
2022-12-04T04:47:15.555Z,22.50
2022-12-04T04:48:15.695Z,22.00
2022-12-04T04:49:15.933Z,21.50
2022-12-04T04:50:15.961Z,23.60
2022-12-04T04:51:17.043Z,23.70
2022-12-04T04:52:16.255Z,22.40
2022-12-04T04:53:16.439Z,23.90
2022-12-04T04:54:16.515Z,22.70
2022-12-04T04:55:16.653Z,23.20
2022-12-04T04:56:16.813Z,22.50
2022-12-04T04:57:16.963Z,21.20
2022-12-04T04:58:17.158Z,23.50
2022-12-04T04:59:17.311Z,22.40
2022-12-04T05:00:17.400Z,21.50
2022-12-04T05:01:17.602Z,24.10
2022-12-04T05:02:17.779Z,23.30
2022-12-04T05:03:17.847Z,21.70
2022-12-04T05:04:17.990Z,21.30
2022-12-04T05:05:18.072Z,23.30
2022-12-04T05:06:18.236Z,22.80
2022-12-04T05:07:18.378Z,22.10
2022-12-04T05:08:18.665Z,22.20
2022-12-04T05:09:18.682Z,22.20
2022-12-04T05:10:18.819Z,21.60
2022-12-04T05:11:19.063Z,21.90
2022-12-04T05:12:19.112Z,22.10
2022-12-04T05:13:19.232Z,22.70
2022-12-04T05:14:19.370Z,21.40
2022-12-04T05:15:19.534Z,21.50
2022-12-04T05:16:19.730Z,21.60
2022-12-04T05:17:19.762Z,21.10
2022-12-04T05:18:19.938Z,22.20
2022-12-04T05:19:20.049Z,20.80
2022-12-04T05:20:20.220Z,20.90
2022-12-04T05:21:20.351Z,21.50
2022-12-04T05:22:20.490Z,21.30
2022-12-04T05:23:20.671Z,20.70
2022-12-04T05:24:20.769Z,21.60
2022-12-04T05:25:20.916Z,21.10
2022-12-04T05:26:21.073Z,21.40
2022-12-04T05:27:21.188Z,21.00
2022-12-04T05:28:21.333Z,21.00
2022-12-04T05:29:21.475Z,22.20
2022-12-04T05:30:21.618Z,20.10
2022-12-04T05:31:22.778Z,22.20
2022-12-04T05:32:21.888Z,22.50
2022-12-04T05:33:22.062Z,20.20
2022-12-04T05:34:22.188Z,21.20
2022-12-04T05:35:22.339Z,21.30
2022-12-04T05:36:22.486Z,21.50
2022-12-04T05:37:22.638Z,21.10
2022-12-04T05:38:22.761Z,20.30
2022-12-04T05:39:22.917Z,20.80
2022-12-04T05:40:23.058Z,18.80
2022-12-04T05:41:24.168Z,22.30
2022-12-04T05:42:23.378Z,22.60
2022-12-04T05:43:23.469Z,19.80
2022-12-04T05:44:23.611Z,20.70
2022-12-04T05:45:23.761Z,21.40
2022-12-04T05:46:23.972Z,20.90
2022-12-04T05:47:24.018Z,20.60
2022-12-04T05:48:24.175Z,19.80
2022-12-04T05:49:24.327Z,20.30
2022-12-04T05:50:24.468Z,19.20
2022-12-04T05:51:24.613Z,19.50
2022-12-04T05:52:24.763Z,20.40
2022-12-04T05:53:24.884Z,21.30
2022-12-04T05:54:25.017Z,19.60
2022-12-04T05:55:25.185Z,21.00
2022-12-04T05:56:25.345Z,19.10
2022-12-04T05:57:25.834Z,20.40
2022-12-04T05:58:25.635Z,20.40
2022-12-04T05:59:25.786Z,20.10
2022-12-04T06:00:25.946Z,19.60
2022-12-04T06:01:27.024Z,20.50
2022-12-04T06:02:26.237Z,19.90
2022-12-04T06:03:26.391Z,19.90
2022-12-04T06:04:26.451Z,20.10
2022-12-04T06:05:26.576Z,20.10
2022-12-04T06:06:26.805Z,21.40
2022-12-04T06:07:26.886Z,20.40
2022-12-04T06:08:27.024Z,20.30
2022-12-04T06:09:27.093Z,19.40
2022-12-04T06:10:27.233Z,19.00
2022-12-04T06:11:27.375Z,18.70
2022-12-04T06:12:27.503Z,19.00
2022-12-04T06:13:27.662Z,19.90
2022-12-04T06:14:27.793Z,18.50
2022-12-04T06:15:27.995Z,20.10
2022-12-04T06:16:28.185Z,20.40
2022-12-04T06:17:28.231Z,19.30
2022-12-04T06:18:28.386Z,18.90
2022-12-04T06:19:28.522Z,17.80
2022-12-04T06:20:28.704Z,19.10
2022-12-04T06:21:28.875Z,19.30
2022-12-04T06:22:28.988Z,20.10
2022-12-04T06:23:29.076Z,19.00
2022-12-04T06:24:29.210Z,19.30
2022-12-04T06:25:30.331Z,18.30
2022-12-04T06:26:29.492Z,19.20
2022-12-04T06:27:29.626Z,19.60
2022-12-04T06:28:29.788Z,18.00
2022-12-04T06:29:29.920Z,18.90
2022-12-04T06:30:30.052Z,18.80
2022-12-04T06:31:30.336Z,17.70
2022-12-04T06:32:30.318Z,19.40
2022-12-04T06:33:30.491Z,17.20
2022-12-04T06:34:30.588Z,17.70
2022-12-04T06:35:30.730Z,18.30
2022-12-04T06:36:30.878Z,17.60
2022-12-04T06:37:30.998Z,16.80
2022-12-04T06:38:31.170Z,18.20
2022-12-04T06:39:31.338Z,17.10
2022-12-04T06:40:31.492Z,18.00
2022-12-04T06:41:31.587Z,18.90
2022-12-04T06:42:31.657Z,16.60
2022-12-04T06:43:31.837Z,17.70
2022-12-04T06:44:31.969Z,17.60
2022-12-04T06:45:32.130Z,18.60
2022-12-04T06:46:32.256Z,17.00
2022-12-04T06:47:32.388Z,17.70
2022-12-04T06:48:32.536Z,17.20
2022-12-04T06:49:32.667Z,17.60
2022-12-04T06:50:32.829Z,18.40
2022-12-04T06:51:33.006Z,17.30
2022-12-04T06:52:33.086Z,16.50
2022-12-04T06:53:33.215Z,16.40
2022-12-04T06:54:33.369Z,17.90
2022-12-04T06:55:33.495Z,17.30
2022-12-04T06:56:33.668Z,17.50
2022-12-04T06:57:33.742Z,18.60
2022-12-04T06:58:33.915Z,18.70
2022-12-04T06:59:33.996Z,17.90
2022-12-04T07:00:34.145Z,16.20
2022-12-04T07:01:34.564Z,18.10
2022-12-04T07:02:34.488Z,17.40
2022-12-04T07:03:34.585Z,16.80
2022-12-04T07:04:34.684Z,15.60
2022-12-04T07:05:34.827Z,17.70
2022-12-04T07:06:34.953Z,17.40
2022-12-04T07:07:35.088Z,17.10
2022-12-04T07:08:35.204Z,16.60
2022-12-04T07:09:35.294Z,17.80
2022-12-04T07:10:35.459Z,17.30
2022-12-04T07:11:35.631Z,18.60
2022-12-04T07:12:35.733Z,17.00
2022-12-04T07:13:35.852Z,17.20
2022-12-04T07:14:35.969Z,17.20
2022-12-04T07:15:36.065Z,17.90
2022-12-04T07:16:40.886Z,18.20
2022-12-04T07:17:37.291Z,17.20
2022-12-04T07:18:36.423Z,18.40
2022-12-04T07:19:36.533Z,17.70
2022-12-04T07:20:36.699Z,17.90
2022-12-04T07:21:36.942Z,18.10
2022-12-04T07:22:36.995Z,18.80
2022-12-04T07:23:37.093Z,17.10
2022-12-04T07:24:37.191Z,16.70
2022-12-04T07:25:37.301Z,18.00
2022-12-04T07:26:37.415Z,17.90
2022-12-04T07:27:37.587Z,17.30
2022-12-04T07:28:37.694Z,18.10
2022-12-04T07:29:37.811Z,17.70
2022-12-04T07:30:38.002Z,16.90
2022-12-04T07:31:38.203Z,18.30
2022-12-04T07:32:38.217Z,18.80
2022-12-04T07:33:38.301Z,17.50
2022-12-04T07:34:38.485Z,18.70
2022-12-04T07:35:38.568Z,17.80
2022-12-04T07:36:38.765Z,18.80
2022-12-04T07:37:38.840Z,19.20
2022-12-04T07:38:39.078Z,17.20
2022-12-04T07:39:39.159Z,20.50
2022-12-04T07:40:39.335Z,19.60
2022-12-04T07:41:39.438Z,17.80
2022-12-04T07:42:39.539Z,18.70
2022-12-04T07:43:39.678Z,18.10
2022-12-04T07:44:39.857Z,18.60
2022-12-04T07:45:40.018Z,18.10
2022-12-04T07:46:40.087Z,18.20
2022-12-04T07:47:40.228Z,19.20
2022-12-04T07:48:40.348Z,19.30
2022-12-04T07:49:40.438Z,18.80
2022-12-04T07:50:40.624Z,19.30
2022-12-04T07:51:40.763Z,18.20
2022-12-04T07:52:40.897Z,18.40
2022-12-04T07:53:41.019Z,19.50
2022-12-04T07:54:41.109Z,19.30
2022-12-04T07:55:41.300Z,20.90
2022-12-04T07:56:41.437Z,19.20
2022-12-04T07:57:41.602Z,20.00
2022-12-04T07:58:41.749Z,20.50
2022-12-04T07:59:41.910Z,19.60
2022-12-04T08:00:42.097Z,19.10
2022-12-04T08:01:42.279Z,20.90
2022-12-04T08:02:42.295Z,20.10
2022-12-04T08:03:47.635Z,19.30
2022-12-04T08:04:43.630Z,19.90
2022-12-04T08:05:42.645Z,20.30
2022-12-04T08:06:42.804Z,20.30
2022-12-04T08:07:43.072Z,19.70
2022-12-04T08:08:43.111Z,20.40
2022-12-04T08:09:43.195Z,20.80
2022-12-04T08:10:43.314Z,21.40
2022-12-04T08:11:43.426Z,19.90
2022-12-04T08:12:43.572Z,20.90
2022-12-04T08:13:43.699Z,20.40
2022-12-04T08:14:43.783Z,19.00
2022-12-04T08:15:43.898Z,20.50
2022-12-04T08:16:48.263Z,20.90
2022-12-04T08:17:45.162Z,20.20
2022-12-04T08:18:44.337Z,20.60
2022-12-04T08:19:44.445Z,19.80
2022-12-04T08:20:44.542Z,21.80
2022-12-04T08:21:44.673Z,21.30
2022-12-04T08:22:44.781Z,21.70
2022-12-04T08:23:44.881Z,20.80
2022-12-04T08:24:45.601Z,20.30
2022-12-04T08:25:45.204Z,22.00
2022-12-04T08:26:45.314Z,20.40
2022-12-04T08:27:47.562Z,21.20
2022-12-04T08:28:45.543Z,21.90
2022-12-04T08:29:45.691Z,22.30
2022-12-04T08:30:45.909Z,23.20
2022-12-04T08:31:45.931Z,22.40
2022-12-04T08:32:46.051Z,21.70
2022-12-04T08:33:46.141Z,21.90
2022-12-04T08:34:49.807Z,22.60
2022-12-04T08:35:47.421Z,22.40
2022-12-04T08:36:46.578Z,23.10
2022-12-04T08:37:46.749Z,23.30
2022-12-04T08:38:46.850Z,22.40
2022-12-04T08:39:47.037Z,21.40
2022-12-04T08:40:47.131Z,23.10
2022-12-04T08:41:50.045Z,22.60
2022-12-04T08:42:48.501Z,23.30
2022-12-04T08:43:47.479Z,24.10
2022-12-04T08:44:47.626Z,24.60
2022-12-04T08:45:47.839Z,23.00
2022-12-04T08:46:47.997Z,22.60
2022-12-04T08:47:52.257Z,22.90
2022-12-04T08:48:48.115Z,22.00
2022-12-04T08:49:48.209Z,23.60
2022-12-04T08:50:48.414Z,23.20
2022-12-04T08:51:48.468Z,23.60
2022-12-04T08:52:48.576Z,24.60
2022-12-04T08:53:48.688Z,24.00
2022-12-04T08:54:48.789Z,22.50
2022-12-04T08:55:48.964Z,24.50
2022-12-04T08:56:49.098Z,22.30
2022-12-04T08:57:49.217Z,22.90
2022-12-04T08:58:49.402Z,22.50
2022-12-04T08:59:49.489Z,22.50
2022-12-04T09:00:49.647Z,24.60
2022-12-04T09:01:49.807Z,23.30
2022-12-04T09:02:49.874Z,24.90
2022-12-04T09:03:49.979Z,23.30
2022-12-04T09:04:50.179Z,26.00
2022-12-04T09:05:50.266Z,24.90
2022-12-04T09:06:50.381Z,24.10
2022-12-04T09:07:50.671Z,24.60
2022-12-04T09:08:50.665Z,24.10
2022-12-04T09:09:51.766Z,24.30
2022-12-04T09:10:50.921Z,25.10
2022-12-04T09:11:51.025Z,24.40
2022-12-04T09:12:51.133Z,24.20
2022-12-04T09:13:51.243Z,24.20
2022-12-04T09:14:51.354Z,23.40
2022-12-04T09:15:51.572Z,23.40
2022-12-04T09:16:51.670Z,24.20
2022-12-04T09:17:51.718Z,24.60
2022-12-04T09:18:51.899Z,24.90
2022-12-04T09:19:54.575Z,25.10
2022-12-04T09:20:52.091Z,24.50
2022-12-04T09:21:52.252Z,24.10
2022-12-04T09:23:04.043Z,23.90
2022-12-04T09:23:53.473Z,25.30
2022-12-04T09:24:52.621Z,24.50
2022-12-04T09:25:52.783Z,22.40
2022-12-04T09:26:52.943Z,23.60
2022-12-04T09:27:53.106Z,24.30
2022-12-04T09:28:53.265Z,24.00
2022-12-04T09:29:53.707Z,22.50
2022-12-04T09:30:53.554Z,23.50
2022-12-04T09:31:53.684Z,23.30
2022-12-04T09:32:53.841Z,24.70
2022-12-04T09:33:54.005Z,24.50
2022-12-04T09:34:54.112Z,23.00
2022-12-04T09:35:54.216Z,22.40
2022-12-04T09:36:54.364Z,23.90
2022-12-04T09:37:54.521Z,22.90
2022-12-04T09:38:54.692Z,23.80
2022-12-04T09:39:55.212Z,23.00
2022-12-04T09:40:55.035Z,24.20
2022-12-04T09:41:55.123Z,23.20
2022-12-04T09:42:55.297Z,23.10
2022-12-04T09:43:55.390Z,22.40
2022-12-04T09:44:55.558Z,23.00
2022-12-04T09:45:55.799Z,23.40
2022-12-04T09:46:55.938Z,24.10
2022-12-04T09:47:55.987Z,22.40
2022-12-04T09:48:56.068Z,22.80
2022-12-04T09:49:56.419Z,23.50
2022-12-04T09:50:56.346Z,23.80
2022-12-04T09:51:56.508Z,23.70
2022-12-04T09:52:56.618Z,22.50
2022-12-04T09:53:56.727Z,23.80
2022-12-04T09:54:56.842Z,22.70
2022-12-04T09:55:56.981Z,23.00
2022-12-04T09:56:57.138Z,23.50
2022-12-04T09:58:01.894Z,23.50
2022-12-04T09:58:58.416Z,22.50
2022-12-04T09:59:57.899Z,22.90
2022-12-04T10:00:57.723Z,20.60
2022-12-04T10:01:57.796Z,22.70
2022-12-04T10:13:15.438Z,24.30
2022-12-04T10:14:15.540Z,24.00
2022-12-04T10:15:15.653Z,22.30
2022-12-04T10:16:15.804Z,22.50
2022-12-04T10:17:15.878Z,22.70
2022-12-04T10:18:16.010Z,20.70
2022-12-04T10:19:16.096Z,22.40
2022-12-04T10:20:16.269Z,22.40
2022-12-04T10:21:16.395Z,22.30
2022-12-04T10:22:16.513Z,21.50
2022-12-04T10:23:16.619Z,21.80
2022-12-04T10:24:16.748Z,21.00
2022-12-04T10:25:16.846Z,20.90
2022-12-04T10:26:17.034Z,21.00
2022-12-04T10:27:17.137Z,21.70
2022-12-04T10:28:17.251Z,20.80
2022-12-04T10:29:17.435Z,21.10
2022-12-04T10:30:17.532Z,21.30
2022-12-04T10:31:17.758Z,22.50
2022-12-04T10:32:17.808Z,21.80
2022-12-04T10:33:17.961Z,20.40
2022-12-04T10:34:18.173Z,21.90
2022-12-04T10:35:18.223Z,20.90
2022-12-04T10:36:18.347Z,19.20
2022-12-04T10:37:18.507Z,21.30
2022-12-04T10:38:18.637Z,21.00
2022-12-04T10:39:18.755Z,19.30
2022-12-04T10:40:18.853Z,21.40
2022-12-04T10:41:18.952Z,21.10
2022-12-04T10:42:19.145Z,20.30
2022-12-04T10:43:19.233Z,21.30
2022-12-04T10:44:19.422Z,20.40
2022-12-04T10:45:19.521Z,20.50
2022-12-04T10:46:19.645Z,19.40
2022-12-04T10:47:19.797Z,20.90
2022-12-04T10:48:19.995Z,20.70
2022-12-04T10:49:20.073Z,20.50
2022-12-04T10:50:20.181Z,21.10
2022-12-04T10:51:20.304Z,19.90
2022-12-04T10:52:20.405Z,20.00
2022-12-04T10:53:20.512Z,20.10
2022-12-04T10:54:20.604Z,20.30
2022-12-04T10:55:20.723Z,21.20
2022-12-04T10:56:20.883Z,21.00
2022-12-04T10:57:20.986Z,21.00
2022-12-04T10:58:21.141Z,20.30
2022-12-04T10:59:21.241Z,20.50
2022-12-04T11:00:21.409Z,20.20
2022-12-04T11:01:21.570Z,20.10
2022-12-04T11:02:21.786Z,20.40
2022-12-04T11:03:21.926Z,21.10
2022-12-04T11:04:21.912Z,19.70
2022-12-04T11:05:22.000Z,20.60
2022-12-04T11:06:22.169Z,21.20
2022-12-04T11:07:22.258Z,20.20
2022-12-04T11:08:22.473Z,20.40
2022-12-04T11:09:22.522Z,21.40
2022-12-04T11:10:22.714Z,19.80
2022-12-04T11:11:22.801Z,20.60
2022-12-04T11:12:22.938Z,20.30
2022-12-04T11:13:23.105Z,19.60
2022-12-04T11:14:23.235Z,19.70
2022-12-04T11:15:23.330Z,20.00
2022-12-04T11:16:23.514Z,19.90
2022-12-04T11:17:23.530Z,20.30
2022-12-04T11:18:23.726Z,19.20
2022-12-04T11:19:23.827Z,20.80
2022-12-04T11:20:23.956Z,19.60
2022-12-04T11:21:24.063Z,20.70
2022-12-04T11:22:24.240Z,20.30
2022-12-04T11:23:24.319Z,19.70
2022-12-04T11:24:24.439Z,20.50
2022-12-04T11:25:24.603Z,19.20
2022-12-04T11:26:24.729Z,19.90
2022-12-04T11:27:24.832Z,19.60
2022-12-04T11:28:41.074Z,20.30
2022-12-04T11:29:26.066Z,19.40
2022-12-04T11:30:25.241Z,18.90
2022-12-04T11:31:25.405Z,18.00
2022-12-04T11:32:25.533Z,19.20
2022-12-04T11:33:25.607Z,19.30
2022-12-04T11:34:25.773Z,20.20
2022-12-04T11:35:25.945Z,18.80
2022-12-04T11:36:26.142Z,19.40
2022-12-04T11:37:26.165Z,20.20
2022-12-04T11:38:26.348Z,20.10
2022-12-04T11:39:26.444Z,20.50
2022-12-04T11:40:26.615Z,20.00
2022-12-04T11:41:26.775Z,18.90
2022-12-04T11:42:27.082Z,20.40
2022-12-04T11:43:27.117Z,19.30
2022-12-04T11:44:27.196Z,19.40
2022-12-04T11:45:27.327Z,19.10
2022-12-04T11:46:27.463Z,19.00
2022-12-04T11:47:27.555Z,19.40
2022-12-04T11:48:27.661Z,20.60
2022-12-04T11:49:27.799Z,19.80
2022-12-04T11:50:28.021Z,19.60
2022-12-04T11:51:28.126Z,19.50
2022-12-04T11:52:28.252Z,19.00
2022-12-04T11:53:28.351Z,19.40
2022-12-04T11:54:28.545Z,19.90
2022-12-04T11:55:29.493Z,20.90
2022-12-04T11:56:28.773Z,21.20
2022-12-04T11:57:28.953Z,19.50
2022-12-04T11:58:29.041Z,21.00
2022-12-04T11:59:29.210Z,21.20
2022-12-04T12:00:29.309Z,20.80
2022-12-04T12:01:30.523Z,21.40
2022-12-04T12:02:29.705Z,21.20
2022-12-04T12:03:29.870Z,20.90
2022-12-04T12:04:29.829Z,20.70
2022-12-04T12:05:30.010Z,22.00
2022-12-04T12:06:30.139Z,21.60
2022-12-04T12:07:30.353Z,20.60
2022-12-04T12:08:30.348Z,21.10
2022-12-04T12:09:30.443Z,19.80
2022-12-04T12:10:30.618Z,21.40
2022-12-04T12:11:30.778Z,21.90
2022-12-04T12:12:30.889Z,21.10
2022-12-04T12:13:31.003Z,21.40
2022-12-04T12:14:31.090Z,20.40
2022-12-04T12:15:31.259Z,20.10
2022-12-04T12:16:31.401Z,20.30
2022-12-04T12:17:31.469Z,20.20
2022-12-04T12:18:31.609Z,22.40
2022-12-04T12:19:31.736Z,22.20
2022-12-04T12:20:31.836Z,21.10
2022-12-04T12:21:32.086Z,21.60
2022-12-04T12:22:32.097Z,22.30
2022-12-04T12:23:32.263Z,20.40
2022-12-04T12:24:32.396Z,21.90
2022-12-04T12:25:32.579Z,20.50
2022-12-04T12:26:32.628Z,21.00
2022-12-04T12:27:32.787Z,21.20
2022-12-04T12:28:32.955Z,21.10
2022-12-04T12:29:33.053Z,20.90
2022-12-04T12:30:33.211Z,21.00
2022-12-04T12:31:33.451Z,20.20
2022-12-04T12:32:33.469Z,22.10
2022-12-04T12:33:33.636Z,19.70
2022-12-04T12:34:33.756Z,20.00
2022-12-04T12:35:33.854Z,20.50
2022-12-04T12:36:34.011Z,21.10
2022-12-04T12:37:34.159Z,21.40
2022-12-04T12:38:34.321Z,21.30
2022-12-04T12:39:34.538Z,21.70
2022-12-04T12:40:34.593Z,21.90
2022-12-04T12:41:35.744Z,19.60
2022-12-04T12:42:34.886Z,21.10
2022-12-04T12:43:35.118Z,20.00
2022-12-04T12:44:35.164Z,21.90
2022-12-04T12:45:35.468Z,20.20
2022-12-04T12:46:35.476Z,21.40
2022-12-04T12:47:35.672Z,22.40
2022-12-04T12:48:35.722Z,21.60
2022-12-04T12:49:35.911Z,21.20
2022-12-04T12:50:36.063Z,20.70
2022-12-04T12:51:36.162Z,21.20
2022-12-04T12:52:36.282Z,20.80
2022-12-04T12:53:36.395Z,21.60
2022-12-04T12:54:36.490Z,21.00
2022-12-04T12:55:36.704Z,22.10
2022-12-04T12:56:36.790Z,21.40
2022-12-04T12:57:36.872Z,21.80
2022-12-04T12:58:37.047Z,21.40
2022-12-04T12:59:37.171Z,21.50
2022-12-04T13:00:37.305Z,21.00
2022-12-04T13:01:37.523Z,22.80
2022-12-04T13:02:37.696Z,20.70
2022-12-04T13:03:37.733Z,22.10
2022-12-04T13:04:37.831Z,21.10
2022-12-04T13:05:38.005Z,22.20
2022-12-04T13:06:38.108Z,22.30
2022-12-04T13:07:38.401Z,21.90
2022-12-04T13:08:38.384Z,21.00
2022-12-04T13:09:38.469Z,22.50
2022-12-04T13:10:38.602Z,21.30
2022-12-04T13:11:38.727Z,22.30
2022-12-04T13:12:38.848Z,22.80
2022-12-04T13:13:38.966Z,22.80
2022-12-04T13:14:39.049Z,22.70
2022-12-04T13:15:39.189Z,22.20
2022-12-04T13:16:39.349Z,23.00
2022-12-04T13:17:39.436Z,22.00
2022-12-04T13:18:39.606Z,22.20
2022-12-04T13:19:39.721Z,21.80
2022-12-04T13:20:39.896Z,22.20
2022-12-04T13:21:40.067Z,22.20
2022-12-04T13:22:40.120Z,23.50
2022-12-04T13:23:40.389Z,21.80
2022-12-04T13:24:40.397Z,23.60
2022-12-04T13:25:40.507Z,22.40
2022-12-04T13:26:43.587Z,23.30
2022-12-04T13:27:41.806Z,23.30
2022-12-04T13:28:40.946Z,22.30
2022-12-04T13:29:41.106Z,22.30
2022-12-04T13:30:41.361Z,23.00
2022-12-04T13:31:41.419Z,23.10
2022-12-04T13:32:41.555Z,22.20
2022-12-04T13:33:41.740Z,22.20
2022-12-04T13:34:41.836Z,23.50
2022-12-04T13:35:42.008Z,21.90
2022-12-04T13:36:42.107Z,22.80
2022-12-04T13:37:42.275Z,21.90
2022-12-04T13:38:42.387Z,21.70
2022-12-04T13:39:42.524Z,22.80
2022-12-04T13:40:42.615Z,23.40
2022-12-04T13:41:42.707Z,21.90
2022-12-04T13:42:42.856Z,23.40
2022-12-04T13:43:43.054Z,23.60
2022-12-04T13:44:43.164Z,22.60
2022-12-04T13:45:43.362Z,23.30
2022-12-04T13:46:43.502Z,24.30
2022-12-04T13:47:43.604Z,24.40
2022-12-04T13:48:43.714Z,24.50
2022-12-04T13:49:43.896Z,24.20
2022-12-04T13:50:43.993Z,23.90
2022-12-04T13:51:44.165Z,23.80
2022-12-04T13:52:44.312Z,23.60
2022-12-04T13:53:44.444Z,24.80
2022-12-04T13:54:44.542Z,24.30
2022-12-04T13:55:44.703Z,22.80
2022-12-04T13:56:44.833Z,23.40
2022-12-04T13:57:44.994Z,23.60
2022-12-04T13:58:45.081Z,23.50
2022-12-04T13:59:45.236Z,24.00
2022-12-04T14:00:45.422Z,24.10
2022-12-04T14:01:45.570Z,25.40
2022-12-04T14:02:45.740Z,23.70
2022-12-04T14:03:45.819Z,23.80
2022-12-04T14:04:45.964Z,24.00
2022-12-04T14:05:46.079Z,24.90
2022-12-04T14:06:46.161Z,23.10
2022-12-04T14:07:46.311Z,24.00
2022-12-04T14:08:46.371Z,23.00
2022-12-04T14:09:46.551Z,24.40
2022-12-04T14:10:46.640Z,24.40
2022-12-04T14:11:46.760Z,24.00
2022-12-04T14:12:46.851Z,24.00
2022-12-04T14:13:47.010Z,24.50
2022-12-04T14:14:47.160Z,23.80
2022-12-04T14:15:47.271Z,24.50
2022-12-04T14:16:47.575Z,23.30
2022-12-04T14:17:47.539Z,24.80
2022-12-04T14:18:47.691Z,22.80
2022-12-04T14:19:47.881Z,24.20
2022-12-04T14:20:47.950Z,24.10
2022-12-04T14:21:48.129Z,23.90
2022-12-04T14:22:48.218Z,23.80
2022-12-04T14:23:48.339Z,23.30
2022-12-04T14:24:48.458Z,24.00
2022-12-04T14:25:48.583Z,24.10
2022-12-04T14:27:10.828Z,25.20
2022-12-04T14:27:49.801Z,23.60
2022-12-04T14:28:48.958Z,24.10
2022-12-04T14:29:49.068Z,23.50
2022-12-04T14:30:49.244Z,23.90
2022-12-04T14:31:49.304Z,24.50
2022-12-04T14:32:49.395Z,24.70
2022-12-04T14:33:49.566Z,22.50
2022-12-04T14:34:49.686Z,23.60
2022-12-04T14:35:49.795Z,23.10
2022-12-04T14:36:49.886Z,23.70
2022-12-04T14:37:49.994Z,21.60
2022-12-04T14:38:50.256Z,23.50
2022-12-04T14:39:50.335Z,23.90
2022-12-04T14:40:50.449Z,21.60
2022-12-04T14:41:50.545Z,22.40
2022-12-04T14:42:50.645Z,23.70
2022-12-04T14:43:50.849Z,22.50
2022-12-04T14:44:50.946Z,22.30
2022-12-04T14:45:51.133Z,23.20
2022-12-04T14:46:51.224Z,21.70
2022-12-04T14:47:51.361Z,21.70
2022-12-04T14:48:51.435Z,22.00
2022-12-04T14:49:51.648Z,22.40
2022-12-04T14:50:51.763Z,21.10
2022-12-04T14:51:51.874Z,22.20
2022-12-04T14:52:51.983Z,20.50
2022-12-04T14:53:52.086Z,21.40
2022-12-04T14:54:52.225Z,21.50
2022-12-04T14:55:52.295Z,21.70
2022-12-04T14:56:52.475Z,22.30
2022-12-04T14:57:52.582Z,19.90
2022-12-04T14:58:52.705Z,20.90
2022-12-04T14:59:52.802Z,20.60
2022-12-04T15:00:52.910Z,21.20
2022-12-04T15:01:53.065Z,19.90
2022-12-04T15:02:53.164Z,20.30
2022-12-04T15:03:53.394Z,20.30
2022-12-04T15:04:53.715Z,20.90
2022-12-04T15:05:53.502Z,21.30
2022-12-04T15:06:59.685Z,21.00
2022-12-04T15:07:54.880Z,20.00
2022-12-04T15:08:53.953Z,22.10
2022-12-04T15:09:54.095Z,19.70
2022-12-04T15:10:54.225Z,19.60
2022-12-04T15:11:54.338Z,20.90
2022-12-04T15:12:54.476Z,19.00
2022-12-04T15:13:54.674Z,20.80
2022-12-04T15:14:55.074Z,21.10
2022-12-04T15:15:54.956Z,20.60
2022-12-04T15:16:54.981Z,21.60
2022-12-04T15:17:55.142Z,21.60
2022-12-04T15:18:55.261Z,21.50
2022-12-04T15:19:55.372Z,21.80
2022-12-04T15:20:55.478Z,21.00
2022-12-04T15:21:55.615Z,20.10
2022-12-04T15:22:55.691Z,19.70
2022-12-04T15:23:55.836Z,19.70
2022-12-04T15:24:56.248Z,20.80
2022-12-04T15:25:56.150Z,21.00
2022-12-04T15:26:56.257Z,19.80
2022-12-04T15:27:56.419Z,20.20
2022-12-04T15:28:56.587Z,20.30
2022-12-04T15:29:56.687Z,20.70
2022-12-04T15:30:56.842Z,19.80
2022-12-04T15:31:56.988Z,21.30
2022-12-04T15:32:57.097Z,19.80
2022-12-04T15:33:57.241Z,19.80
2022-12-04T15:34:57.557Z,20.60
2022-12-04T15:35:57.526Z,22.00
2022-12-04T15:36:57.686Z,20.90
2022-12-04T15:37:57.795Z,21.50
2022-12-04T15:38:57.872Z,22.70
2022-12-04T15:39:58.642Z,20.60
2022-12-04T15:40:58.195Z,20.70
2022-12-04T15:41:58.306Z,20.30
2022-12-04T15:42:58.448Z,21.40
2022-12-04T15:43:58.610Z,21.00
2022-12-04T15:44:58.915Z,20.30
2022-12-04T15:45:58.937Z,19.90
2022-12-04T15:46:59.094Z,20.60
2022-12-04T15:47:59.159Z,20.30
2022-12-04T15:48:59.305Z,19.80
2022-12-04T15:49:59.484Z,21.00
2022-12-04T15:50:59.564Z,20.90
2022-12-04T15:51:59.725Z,19.70
2022-12-04T15:52:59.882Z,19.90
2022-12-04T15:54:00.005Z,19.20
2022-12-04T15:55:00.150Z,19.20
2022-12-04T15:56:00.274Z,20.90
2022-12-04T15:57:00.404Z,21.90
2022-12-04T15:58:00.574Z,21.00
2022-12-04T15:59:00.734Z,20.80
2022-12-04T16:00:00.877Z,19.30
2022-12-04T16:01:01.007Z,20.20
2022-12-04T16:12:26.083Z,21.70
2022-12-04T16:13:26.198Z,21.40
2022-12-04T16:14:26.305Z,19.30
2022-12-04T16:15:26.480Z,20.80
2022-12-04T16:16:26.637Z,20.10
2022-12-04T16:17:26.698Z,21.10
2022-12-04T16:18:26.829Z,21.00
2022-12-04T16:19:26.989Z,21.00
2022-12-04T16:20:27.122Z,19.80
2022-12-04T16:21:27.292Z,20.30
2022-12-04T16:22:27.386Z,20.40
2022-12-04T16:23:27.520Z,20.00
2022-12-04T16:24:27.666Z,21.10
2022-12-04T16:25:27.813Z,20.40
2022-12-04T16:26:27.958Z,20.90
2022-12-04T16:27:28.120Z,20.00
2022-12-04T16:28:28.219Z,20.70
2022-12-04T16:29:28.357Z,20.70
2022-12-04T16:30:28.508Z,20.80
2022-12-04T16:31:28.738Z,20.10
2022-12-04T16:32:28.798Z,21.10
2022-12-04T16:33:28.948Z,20.30
2022-12-04T16:34:29.155Z,21.50
2022-12-04T16:35:29.259Z,21.00
2022-12-04T16:36:29.390Z,22.30
2022-12-04T16:37:29.631Z,20.60
2022-12-04T16:38:29.657Z,21.80
2022-12-04T16:39:29.810Z,20.40
2022-12-04T16:40:29.969Z,20.40
2022-12-04T16:41:30.152Z,20.30
2022-12-04T16:42:30.236Z,20.70
2022-12-04T16:43:30.378Z,19.60
2022-12-04T16:44:30.526Z,20.90
2022-12-04T16:45:30.675Z,20.20
2022-12-04T16:46:30.896Z,21.80
2022-12-04T16:47:30.966Z,21.10
2022-12-04T16:48:31.115Z,21.20
2022-12-04T16:49:31.826Z,20.90
2022-12-04T16:50:31.365Z,20.80
2022-12-04T16:51:31.530Z,19.50
2022-12-04T16:52:31.694Z,20.50
2022-12-04T16:53:31.733Z,20.10
2022-12-04T16:54:31.874Z,20.50
2022-12-04T16:55:32.027Z,22.30
2022-12-04T16:56:32.197Z,20.50
2022-12-04T16:57:32.295Z,22.40
2022-12-04T16:58:32.386Z,20.50
2022-12-04T16:59:32.560Z,21.50
2022-12-04T17:00:32.712Z,21.50
2022-12-04T17:01:32.829Z,20.60
2022-12-04T17:02:32.924Z,21.80
2022-12-04T17:03:33.075Z,21.70
2022-12-04T17:04:33.318Z,21.50
2022-12-04T17:05:33.333Z,22.00
2022-12-04T17:06:33.468Z,21.90
2022-12-04T17:07:33.633Z,20.70
2022-12-04T17:08:33.774Z,21.00
2022-12-04T17:09:33.882Z,20.40
2022-12-04T17:10:34.033Z,21.20
2022-12-04T17:11:34.214Z,20.50
2022-12-04T17:12:34.342Z,20.10
2022-12-04T17:13:34.462Z,21.80